Time;durP1;ratioP1;P1;durP2;ratioP2;P2;SDS_P1;SDS_P2;PMS_P1;PMS_P2;Temp;Humidity;BMP_temperature;BMP_pressure;BME280_temperature;BME280_humidity;BME280_pressure;Samples;Min_cycle;Max_cycle;Signal;HPM_P1;HPM_P2
2022/09/17 00:00:09;;;;;;;;;4.00;2.50;;;;;15.81;40.17;101415.75;5001790;28;45234;-61
2022/09/17 00:02:35;;;;;;;;;1.25;1.00;;;;;15.83;40.21;101423.69;5001628;28;45958;-61
2022/09/17 00:05:00;;;;;;;;;2.00;0.75;;;;;15.80;40.42;101424.59;5001570;28;45450;-61
2022/09/17 00:07:27;;;;;;;;;0.75;0.75;;;;;15.78;40.29;101421.09;5001697;28;45335;-61
2022/09/17 00:09:52;;;;;;;;;1.50;1.50;;;;;15.78;40.35;101426.41;5001527;28;45338;-61
2022/09/17 00:12:17;;;;;;;;;1.25;0.75;;;;;15.76;40.32;101429.09;5001103;28;45484;-61
2022/09/17 00:14:43;;;;;;;;;2.75;0.75;;;;;15.75;40.55;101432.66;5001276;28;45409;-61
2022/09/17 00:17:08;;;;;;;;;2.25;1.50;;;;;15.74;40.41;101430.06;5001403;28;45373;-61
2022/09/17 00:19:33;;;;;;;;;1.75;1.75;;;;;15.66;40.96;101417.00;5000683;28;45358;-61
2022/09/17 00:21:59;;;;;;;;;2.75;1.00;;;;;15.73;40.47;101429.16;5001041;28;45457;-62
2022/09/17 00:24:24;;;;;;;;;3.00;0.75;;;;;15.74;40.55;101430.06;5001219;28;45561;-62
2022/09/17 00:26:49;;;;;;;;;2.75;2.25;;;;;15.70;40.47;101423.97;5001561;28;45500;-62
2022/09/17 00:29:15;;;;;;;;;0.75;0.75;;;;;15.71;40.43;101431.00;5000279;28;45266;-62
2022/09/17 00:31:40;;;;;;;;;2.00;1.75;;;;;15.71;40.97;101430.13;4988861;28;45493;-62
2022/09/17 00:34:06;;;;;;;;;2.00;1.75;;;;;15.68;41.01;101428.41;5000814;28;45315;-62
2022/09/17 00:36:36;;;;;;;;;0.75;0.75;;;;;15.67;40.58;101421.41;5001359;28;45268;-62
2022/09/17 00:39:03;;;;;;;;;0.75;0.75;;;;;15.63;40.86;101426.78;5000007;28;45364;-63
2022/09/17 00:41:31;;;;;;;;;2.25;2.00;;;;;15.64;40.69;101425.91;5000969;28;46445;-62
2022/09/17 00:43:59;;;;;;;;;2.00;2.00;;;;;15.64;41.24;101428.53;4982979;28;45410;-62
2022/09/17 00:46:40;;;;;;;;;2.75;1.25;;;;;15.62;41.28;101433.00;5000938;28;45353;-62
2022/09/17 00:49:25;;;;;;;;;0.75;0.75;;;;;15.60;41.21;101423.31;5000873;28;45470;-62
2022/09/17 00:52:13;;;;;;;;;2.75;1.75;;;;;15.57;41.06;101423.41;4988416;28;46856;-62
2022/09/17 00:54:41;;;;;;;;;1.25;0.75;;;;;15.57;40.75;101435.75;5000289;28;45402;-62
2022/09/17 00:57:08;;;;;;;;;1.75;0.50;;;;;15.54;41.24;101427.88;5000786;28;45389;-62
2022/09/17 00:59:34;;;;;;;;;0.75;0.75;;;;;15.54;41.08;101428.75;4962950;28;45318;-62
2022/09/17 01:01:59;;;;;;;;;5.00;3.50;;;;;15.53;41.04;101428.78;4979876;28;47419;-62
2022/09/17 01:04:26;;;;;;;;;0.75;0.75;;;;;15.53;41.08;101429.66;4982819;28;45904;-62
2022/09/17 01:07:26;;;;;;;;;0.00;0.00;;;;;15.52;41.03;101432.34;4965511;28;45272;-62
2022/09/17 01:09:57;;;;;;;;;1.50;0.75;;;;;15.46;41.33;101424.53;4996893;28;45662;-62
2022/09/17 01:12:50;;;;;;;;;0.25;0.25;;;;;15.48;41.14;101435.97;5000240;28;46391;-62
2022/09/17 01:15:24;;;;;;;;;1.75;0.75;;;;;15.44;41.47;101435.19;4987994;28;45440;-62
2022/09/17 01:18:25;;;;;;;;;2.00;1.00;;;;;15.41;41.28;101424.66;5000448;28;45500;-62
2022/09/17 01:21:15;;;;;;;;;0.75;0.75;;;;;15.39;41.52;101424.69;4958988;28;45455;-62
2022/09/17 01:24:02;;;;;;;;;1.75;0.75;;;;;15.39;41.05;101426.47;4998183;28;46264;-62
2022/09/17 01:26:46;;;;;;;;;2.00;0.00;;;;;15.39;41.07;101432.63;4987370;28;45283;-62
2022/09/17 01:29:34;;;;;;;;;2.00;0.00;;;;;15.38;41.69;101437.97;4999830;28;45465;-62
2022/09/17 01:32:08;;;;;;;;;0.50;0.00;;;;;15.33;41.26;101427.47;4990755;28;45334;-62
2022/09/17 01:35:05;;;;;;;;;2.00;0.75;;;;;15.35;41.40;101435.41;4999917;28;47472;-62
2022/09/17 01:37:52;;;;;;;;;0.00;0.00;;;;;15.35;41.74;101436.25;4995735;28;45444;-62
2022/09/17 01:40:45;;;;;;;;;1.50;0.50;;;;;15.35;41.78;101446.84;5000192;28;45330;-62
2022/09/17 01:43:39;;;;;;;;;3.00;1.00;;;;;15.33;41.67;101443.34;4958360;28;45487;-62
2022/09/17 01:46:51;;;;;;;;;6.75;6.00;;;;;15.33;41.38;101453.09;4999526;28;46321;-62
2022/09/17 01:49:19;;;;;;;;;11.00;10.00;;;;;15.32;41.84;101459.28;4955856;28;45707;-62
2022/09/17 01:51:48;;;;;;;;;21.50;17.50;;;;;15.31;41.40;101460.19;4982070;28;45462;-62
2022/09/17 01:54:21;;;;;;;;;20.75;12.50;;;;;15.27;41.40;101457.63;4969724;28;45596;-62
2022/09/17 01:57:07;;;;;;;;;16.50;13.50;;;;;15.27;41.38;101459.41;4999842;28;45506;-62
2022/09/17 01:59:40;;;;;;;;;10.75;6.75;;;;;15.24;41.77;101455.06;4998369;28;45285;-61
2022/09/17 02:02:11;;;;;;;;;10.00;9.00;;;;;15.21;41.80;101449.81;4977203;28;45415;-61
2022/09/17 02:04:43;;;;;;;;;7.50;6.00;;;;;15.21;41.79;101457.75;4992491;28;45263;-61
2022/09/17 02:07:21;;;;;;;;;9.00;6.75;;;;;15.18;41.66;101468.44;4999837;28;45294;-62
2022/09/17 02:09:56;;;;;;;;;2.50;0.75;;;;;15.16;41.60;101451.69;4999643;28;45381;-61
2022/09/17 02:12:30;;;;;;;;;2.00;2.00;;;;;15.15;41.69;101465.84;4999527;28;45309;-61
2022/09/17 02:14:59;;;;;;;;;3.25;2.50;;;;;15.12;41.62;101463.25;4999315;28;45543;-61
2022/09/17 02:17:34;;;;;;;;;1.00;1.00;;;;;15.07;41.81;101460.72;4981656;28;46712;-61
2022/09/17 02:20:00;;;;;;;;;2.25;0.25;;;;;15.07;41.59;101457.19;4978577;28;45211;-62
2022/09/17 02:22:39;;;;;;;;;3.50;1.00;;;;;15.09;41.65;101465.97;4993132;28;45445;-61
2022/09/17 02:25:19;;;;;;;;;0.50;0.50;;;;;15.06;42.19;101466.91;4988416;28;45366;-61
2022/09/17 02:27:59;;;;;;;;;2.25;1.00;;;;;15.05;41.86;101461.66;4999263;28;45428;-61
2022/09/17 02:30:25;;;;;;;;;0.50;0.50;;;;;15.00;41.88;101456.44;4989112;28;45461;-61
2022/09/17 02:32:52;;;;;;;;;0.50;0.50;;;;;14.97;41.76;101460.94;4996458;28;45251;-61
2022/09/17 02:35:18;;;;;;;;;1.00;1.00;;;;;14.96;41.92;101460.06;4999431;28;45305;-61
2022/09/17 02:37:44;;;;;;;;;1.00;1.00;;;;;14.93;41.96;101460.13;4995022;28;45980;-61
2022/09/17 02:40:14;;;;;;;;;1.50;0.75;;;;;14.94;42.23;101457.47;4999497;28;45195;-61
2022/09/17 02:43:01;;;;;;;;;0.00;0.00;;;;;14.90;42.39;101463.69;4999308;28;45290;-61
2022/09/17 02:45:47;;;;;;;;;1.00;1.00;;;;;14.86;42.31;101455.88;4999092;28;45338;-61
2022/09/17 02:48:47;;;;;;;;;3.00;1.00;;;;;14.83;42.41;101456.81;4969936;28;46799;-62
2022/09/17 02:51:37;;;;;;;;;1.25;1.25;;;;;14.80;42.31;101459.50;4988595;28;45445;-61
2022/09/17 02:54:12;;;;;;;;;1.00;1.00;;;;;14.78;42.37;101456.03;4999306;28;45251;-61
2022/09/17 02:56:37;;;;;;;;;1.50;1.50;;;;;14.76;42.41;101463.13;4998818;28;45551;-61
2022/09/17 02:59:22;;;;;;;;;4.00;2.00;;;;;14.76;42.38;101455.19;4999129;28;46138;-61
2022/09/17 03:01:52;;;;;;;;;3.00;3.00;;;;;14.75;42.73;101453.44;4999193;28;45318;-61
2022/09/17 03:04:20;;;;;;;;;2.25;2.25;;;;;14.73;42.58;101456.13;4999376;28;45458;-61
2022/09/17 03:06:46;;;;;;;;;1.00;1.00;;;;;14.75;42.51;101461.38;4981282;28;45556;-61
2022/09/17 03:09:13;;;;;;;;;1.50;1.00;;;;;14.73;42.58;101456.13;4999011;28;45320;-61
2022/09/17 03:11:40;;;;;;;;;0.50;0.50;;;;;14.72;42.60;101464.09;4999065;28;45235;-61
2022/09/17 03:14:05;;;;;;;;;2.25;1.00;;;;;14.72;42.85;101466.75;4998701;28;45538;-61
2022/09/17 03:16:30;;;;;;;;;2.25;2.00;;;;;14.69;42.51;101467.69;4998538;28;45312;-61
2022/09/17 03:18:56;;;;;;;;;1.50;1.50;;;;;14.62;42.33;101458.94;4998879;28;45172;-61
2022/09/17 03:21:21;;;;;;;;;1.75;0.75;;;;;14.66;42.40;101467.72;4998986;28;45332;-61
2022/09/17 03:23:46;;;;;;;;;2.00;1.00;;;;;14.65;42.91;101467.75;5000241;28;45316;-60
2022/09/17 03:26:11;;;;;;;;;2.50;1.25;;;;;14.64;42.62;101458.94;5002309;28;45508;-61
2022/09/17 03:28:37;;;;;;;;;2.00;2.00;;;;;14.54;42.62;101445.00;5002077;28;45449;-61
2022/09/17 03:31:04;;;;;;;;;0.75;0.75;;;;;14.58;42.68;101457.25;4970952;28;45493;-61
2022/09/17 03:33:30;;;;;;;;;1.25;1.25;;;;;14.61;42.73;101459.84;5001928;28;45494;-61
2022/09/17 03:35:55;;;;;;;;;1.75;1.00;;;;;14.62;42.41;101460.72;5001847;28;45492;-61
2022/09/17 03:38:20;;;;;;;;;1.25;1.25;;;;;14.61;42.65;101459.84;4997714;28;45392;-62
2022/09/17 03:40:56;;;;;;;;;2.00;0.50;;;;;14.60;42.38;101463.41;5002045;28;45338;-61
2022/09/17 03:43:22;;;;;;;;;3.00;1.00;;;;;14.58;42.79;101456.41;5001733;28;45534;-61
2022/09/17 03:45:48;;;;;;;;;1.00;1.00;;;;;14.58;42.64;101467.84;5001492;28;45288;-61
2022/09/17 03:48:13;;;;;;;;;1.25;1.25;;;;;14.58;42.55;101472.28;5002058;28;45256;-62
2022/09/17 03:50:38;;;;;;;;;3.50;1.00;;;;;14.55;42.31;101473.19;5001882;28;45404;-62
2022/09/17 03:53:04;;;;;;;;;0.75;0.50;;;;;14.53;42.49;101476.78;5002220;28;45156;-61
2022/09/17 03:55:29;;;;;;;;;2.00;2.00;;;;;14.53;42.82;101482.94;5001728;28;45273;-61
2022/09/17 03:57:55;;;;;;;;;1.50;1.50;;;;;14.50;42.57;101482.97;5001833;28;45230;-61
2022/09/17 04:00:20;;;;;;;;;1.00;1.00;;;;;14.52;42.55;101480.31;5001504;28;45260;-61
2022/09/17 04:02:46;;;;;;;;;1.25;1.00;;;;;14.51;43.07;101484.72;5001795;28;45235;-61
2022/09/17 04:05:11;;;;;;;;;2.00;1.00;;;;;14.49;42.68;101478.59;4983773;28;45254;-61
2022/09/17 04:07:40;;;;;;;;;2.00;0.50;;;;;14.51;42.74;101486.50;5001918;28;45686;-61
2022/09/17 04:10:06;;;;;;;;;1.00;1.00;;;;;14.50;43.10;101490.91;5000778;28;45286;-61
2022/09/17 04:12:31;;;;;;;;;4.00;1.00;;;;;14.48;43.03;101490.09;5001376;28;45329;-62
2022/09/17 04:14:56;;;;;;;;;4.00;1.00;;;;;14.49;42.84;101491.84;4980218;28;45335;-61
2022/09/17 04:17:22;;;;;;;;;3.00;1.25;;;;;14.47;42.86;101489.19;4992749;28;45261;-61
2022/09/17 04:19:47;;;;;;;;;0.00;0.00;;;;;14.45;43.04;101485.72;5001692;28;45338;-61
2022/09/17 04:22:12;;;;;;;;;2.50;1.50;;;;;14.40;42.71;101487.59;5001431;28;45302;-62
2022/09/17 04:24:38;;;;;;;;;3.00;1.00;;;;;14.41;42.93;101489.31;5001071;28;52516;-61
2022/09/17 04:27:03;;;;;;;;;2.00;2.00;;;;;14.39;42.94;101493.75;4983632;28;45543;-61
2022/09/17 04:29:28;;;;;;;;;1.00;1.00;;;;;14.37;43.10;101500.84;4998255;28;45361;-61
2022/09/17 04:31:54;;;;;;;;;3.75;1.00;;;;;14.35;43.08;101507.06;4990903;28;45254;-61
2022/09/17 04:34:19;;;;;;;;;3.75;2.00;;;;;14.31;42.83;101503.59;4979185;28;45792;-61
2022/09/17 04:36:44;;;;;;;;;1.75;1.75;;;;;14.28;43.28;101509.81;4980210;28;45433;-61
2022/09/17 04:39:10;;;;;;;;;0.75;0.50;;;;;14.26;43.24;101503.69;4977401;28;45318;-61
2022/09/17 04:41:35;;;;;;;;;1.00;1.00;;;;;14.24;43.08;101502.84;4981759;28;45343;-61
2022/09/17 04:44:01;;;;;;;;;1.25;1.00;;;;;14.22;43.14;101498.47;4979748;28;45219;-61
2022/09/17 04:46:26;;;;;;;;;3.00;2.00;;;;;14.22;43.13;101506.41;4981213;28;46326;-61
2022/09/17 04:48:51;;;;;;;;;1.00;1.00;;;;;14.21;43.28;101509.94;4981443;28;45402;-61
2022/09/17 04:51:17;;;;;;;;;1.00;1.00;;;;;14.21;43.06;101509.94;4971388;28;45344;-61
2022/09/17 04:53:42;;;;;;;;;2.75;1.00;;;;;14.19;42.85;101509.97;4977439;28;45414;-61
2022/09/17 04:56:07;;;;;;;;;1.00;1.00;;;;;14.19;43.17;101511.72;4980964;28;46256;-61
2022/09/17 04:58:33;;;;;;;;;1.50;0.75;;;;;14.18;43.16;101510.88;4979702;28;45349;-61
2022/09/17 05:00:58;;;;;;;;;0.25;0.25;;;;;14.19;43.25;101517.00;4981403;28;45274;-61
2022/09/17 05:03:24;;;;;;;;;3.00;3.00;;;;;14.20;43.13;101516.13;4979926;28;45564;-61
2022/09/17 05:05:49;;;;;;;;;1.25;1.00;;;;;14.21;43.13;101512.59;4981234;28;45580;-61
2022/09/17 05:08:14;;;;;;;;;2.25;1.50;;;;;14.22;43.22;101525.78;4981074;28;45467;-61
2022/09/17 05:10:40;;;;;;;;;2.75;2.00;;;;;14.19;43.50;101504.69;4981210;28;45304;-61
2022/09/17 05:13:05;;;;;;;;;2.75;1.00;;;;;14.20;43.26;101517.00;4980547;28;45325;-61
2022/09/17 05:15:30;;;;;;;;;3.50;2.25;;;;;14.20;43.61;101517.00;4980730;28;50432;-61
2022/09/17 05:17:56;;;;;;;;;2.25;2.00;;;;;14.19;43.49;101520.56;4980862;28;45262;-61
2022/09/17 05:20:21;;;;;;;;;3.00;1.25;;;;;14.16;43.38;101520.59;4981147;28;45318;-61
2022/09/17 05:22:52;;;;;;;;;2.00;0.25;;;;;14.21;43.76;101518.72;4980725;28;45407;-61
2022/09/17 05:25:22;;;;;;;;;2.00;2.00;;;;;14.19;43.21;101519.66;4979701;28;45355;-61
2022/09/17 05:27:48;;;;;;;;;0.50;0.50;;;;;14.19;43.60;101523.19;4980597;28;45310;-61
2022/09/17 05:30:13;;;;;;;;;2.50;1.75;;;;;14.15;43.13;101518.88;4972138;28;45396;-61
2022/09/17 05:32:39;;;;;;;;;5.50;2.50;;;;;14.19;43.26;101530.22;4976368;28;45519;-61
2022/09/17 05:35:05;;;;;;;;;2.00;2.00;;;;;14.17;43.30;101521.47;4998610;28;46112;-62
2022/09/17 05:37:30;;;;;;;;;0.25;0.25;;;;;14.16;43.79;101535.59;4995633;28;45455;-61
2022/09/17 05:39:56;;;;;;;;;2.50;1.00;;;;;14.17;43.74;101532.91;5000452;28;45224;-61
2022/09/17 05:42:21;;;;;;;;;6.50;6.25;;;;;14.10;43.42;101526.84;5000064;28;45455;-61
2022/09/17 05:44:46;;;;;;;;;3.00;1.00;;;;;14.13;43.72;101547.09;4999903;28;45315;-61
2022/09/17 05:47:12;;;;;;;;;0.00;0.00;;;;;14.12;43.56;101540.94;4999684;28;45271;-61
2022/09/17 05:49:37;;;;;;;;;3.25;1.75;;;;;14.11;43.50;101540.94;5000401;28;45588;-61
2022/09/17 05:52:02;;;;;;;;;3.75;2.50;;;;;14.09;43.51;101529.53;4999976;28;45404;-61
2022/09/17 05:54:28;;;;;;;;;2.75;1.25;;;;;14.12;43.48;101533.00;4999812;28;45472;-62
2022/09/17 05:56:54;;;;;;;;;2.00;2.00;;;;;14.13;43.56;101537.38;4999836;28;45522;-61
2022/09/17 05:59:20;;;;;;;;;2.25;1.00;;;;;14.14;43.52;101538.25;4999713;28;45358;-62
2022/09/17 06:01:45;;;;;;;;;2.00;2.00;;;;;14.16;43.45;101539.09;4999964;28;45279;-62
2022/09/17 06:04:11;;;;;;;;;1.00;1.00;;;;;14.18;43.54;101545.22;4998904;28;46377;-62
2022/09/17 06:06:37;;;;;;;;;3.00;2.00;;;;;14.20;43.75;101554.03;5000020;28;45479;-61
2022/09/17 06:09:04;;;;;;;;;1.00;1.00;;;;;14.20;43.66;101543.44;4999934;28;45293;-62
2022/09/17 06:11:29;;;;;;;;;2.50;1.25;;;;;14.18;43.45;101539.94;4986162;28;45248;-62
2022/09/17 06:13:55;;;;;;;;;1.50;1.50;;;;;14.23;43.32;101553.09;4999603;28;45383;-62
2022/09/17 06:16:22;;;;;;;;;1.00;1.00;;;;;14.21;43.61;101549.59;4998692;28;45223;-62
2022/09/17 06:18:49;;;;;;;;;2.00;2.00;;;;;14.24;43.57;101554.84;4999939;28;45433;-62
2022/09/17 06:21:16;;;;;;;;;1.00;0.00;;;;;14.24;43.74;101561.00;4999601;28;45524;-61
2022/09/17 06:23:42;;;;;;;;;3.75;1.75;;;;;14.24;43.92;101552.22;4999492;28;46211;-62
2022/09/17 06:26:08;;;;;;;;;3.75;1.75;;;;;14.27;43.37;101554.78;4999504;28;45247;-61
2022/09/17 06:28:34;;;;;;;;;4.00;1.00;;;;;14.27;43.93;101558.28;4999667;28;45314;-62
2022/09/17 06:31:02;;;;;;;;;1.00;1.00;;;;;14.28;43.48;101557.38;4986147;28;45323;-62
2022/09/17 06:33:29;;;;;;;;;2.00;2.00;;;;;14.30;43.75;101562.66;4981679;28;47779;-62
2022/09/17 06:36:00;;;;;;;;;2.00;1.00;;;;;14.33;43.67;101556.47;4999326;28;45452;-62
2022/09/17 06:38:26;;;;;;;;;5.00;1.75;;;;;14.36;43.44;101565.19;4977597;28;45297;-62
2022/09/17 06:40:53;;;;;;;;;9.75;8.50;;;;;14.36;43.46;101559.03;4999473;28;45294;-62
2022/09/17 06:43:19;;;;;;;;;3.75;3.00;;;;;14.38;43.92;101560.75;4998962;28;46173;-62
2022/09/17 06:45:53;;;;;;;;;2.00;2.00;;;;;14.39;43.64;101567.81;4999119;28;45353;-59
2022/09/17 06:48:20;;;;;;;;;2.75;1.75;;;;;14.41;44.03;101573.06;4999501;28;45426;-59
2022/09/17 06:50:45;;;;;;;;;2.00;2.00;;;;;14.38;43.79;101565.19;4999027;28;45419;-59
2022/09/17 06:53:10;;;;;;;;;1.00;1.00;;;;;14.44;44.06;101575.66;4999116;28;46054;-62
2022/09/17 06:55:36;;;;;;;;;1.50;1.50;;;;;14.47;43.80;101578.25;4997564;28;45215;-66
2022/09/17 06:58:01;;;;;;;;;1.00;1.00;;;;;14.47;43.90;101587.03;4999068;28;45394;-59
2022/09/17 07:00:26;;;;;;;;;0.75;0.75;;;;;14.45;43.94;101580.03;5002551;28;45315;-61
2022/09/17 07:02:56;;;;;;;;;3.25;2.00;;;;;14.45;43.85;101586.22;5002757;28;45983;-59
2022/09/17 07:05:22;;;;;;;;;3.25;2.00;;;;;14.46;44.22;101579.13;5002830;28;45234;-58
2022/09/17 07:07:47;;;;;;;;;1.00;1.00;;;;;14.45;43.91;101586.22;5002872;28;45552;-59
2022/09/17 07:10:13;;;;;;;;;3.00;1.00;;;;;14.45;44.13;101580.03;5002485;28;45247;-67
2022/09/17 07:12:41;;;;;;;;;1.00;1.00;;;;;14.46;43.88;101584.44;5002291;28;45895;-68
2022/09/17 07:15:09;;;;;;;;;1.25;1.00;;;;;14.46;43.55;101584.44;5002353;28;45313;-61
2022/09/17 07:17:35;;;;;;;;;2.00;2.00;;;;;14.45;43.87;101572.09;5001657;28;45362;-66
2022/09/17 07:20:00;;;;;;;;;2.25;2.25;;;;;14.46;43.75;101571.19;4989224;28;45268;-66
2022/09/17 07:22:25;;;;;;;;;2.75;1.75;;;;;14.48;43.79;101580.00;5001235;28;46214;-60
2022/09/17 07:24:51;;;;;;;;;14.00;13.00;;;;;14.45;43.98;101564.16;5002539;28;45255;-70
2022/09/17 07:27:16;;;;;;;;;16.50;11.50;;;;;14.51;44.17;101574.63;5002543;28;45537;-66
2022/09/17 07:29:41;;;;;;;;;2.00;1.75;;;;;14.50;44.24;101567.59;4997817;28;45240;-67
2022/09/17 07:32:07;;;;;;;;;5.75;3.00;;;;;14.55;44.34;101572.81;4993766;28;45262;-64
2022/09/17 07:34:32;;;;;;;;;5.25;3.75;;;;;14.58;44.24;101576.28;5002409;28;45742;-63
2022/09/17 07:36:58;;;;;;;;;2.00;1.50;;;;;14.60;43.81;101571.84;5000443;28;45700;-64
2022/09/17 07:39:23;;;;;;;;;3.00;3.00;;;;;14.65;43.75;101568.28;4999126;28;45338;-64
2022/09/17 07:41:48;;;;;;;;;6.00;5.00;;;;;14.68;44.53;101574.38;4984439;28;47990;-64
2022/09/17 07:44:14;;;;;;;;;5.50;3.50;;;;;14.72;44.09;101572.56;5001761;28;45326;-64
2022/09/17 07:46:39;;;;;;;;;3.00;2.50;;;;;14.76;44.00;101579.53;5002172;28;45282;-64
2022/09/17 07:49:04;;;;;;;;;6.75;2.25;;;;;14.79;44.07;101580.34;5002106;28;45285;-64
2022/09/17 07:51:30;;;;;;;;;1.50;1.50;;;;;14.85;43.96;101582.00;5002161;28;46124;-64
2022/09/17 07:53:57;;;;;;;;;2.50;1.00;;;;;14.89;44.11;101581.06;5002036;28;45322;-64
2022/09/17 07:56:24;;;;;;;;;2.50;1.50;;;;;14.95;43.75;101586.25;5002147;28;45243;-64
2022/09/17 07:58:50;;;;;;;;;1.25;1.00;;;;;15.00;43.95;101582.63;5001910;28;45327;-68
2022/09/17 08:01:16;;;;;;;;;3.50;2.25;;;;;15.04;43.95;101582.53;5001328;28;46843;-67
2022/09/17 08:03:46;;;;;;;;;0.75;0.50;;;;;15.11;44.26;101584.16;4984116;28;45307;-65
2022/09/17 08:06:14;;;;;;;;;0.25;0.25;;;;;15.17;44.27;101593.75;5001790;28;45334;-66
2022/09/17 08:08:40;;;;;;;;;0.75;0.00;;;;;15.23;44.32;101591.00;4990831;28;45754;-62
2022/09/17 08:11:08;;;;;;;;;2.50;2.00;;;;;15.29;44.15;101592.63;4997643;28;45350;-65
2022/09/17 08:13:34;;;;;;;;;2.25;1.50;;;;;15.32;44.12;101589.03;4979728;28;46001;-58
2022/09/17 08:16:04;;;;;;;;;1.75;0.50;;;;;15.41;44.31;101595.03;5000914;28;45687;-57
2022/09/17 08:18:29;;;;;;;;;1.75;0.50;;;;;15.49;43.83;101591.34;5001574;28;45463;-60
2022/09/17 08:20:59;;;;;;;;;2.25;0.00;;;;;15.54;44.30;101595.63;5001486;28;45259;-58
2022/09/17 08:23:28;;;;;;;;;2.50;0.25;;;;;15.60;44.20;101598.16;5001342;28;45324;-60
2022/09/17 08:25:59;;;;;;;;;0.00;0.00;;;;;15.64;43.67;101604.25;4991237;28;45252;-60
2022/09/17 08:28:26;;;;;;;;;0.75;0.75;;;;;15.72;43.86;101604.09;5001393;28;45401;-66
2022/09/17 08:30:52;;;;;;;;;2.75;1.25;;;;;15.77;43.61;101608.41;4989869;28;45292;-58
2022/09/17 08:33:19;;;;;;;;;1.00;1.00;;;;;15.84;44.05;101609.16;5001374;28;45489;-59
2022/09/17 08:35:52;;;;;;;;;1.25;0.00;;;;;15.91;43.86;101612.53;5001265;28;45513;-54
2022/09/17 08:38:18;;;;;;;;;3.00;0.25;;;;;15.97;43.88;101608.88;5000337;28;45314;-58
2022/09/17 08:40:59;;;;;;;;;1.50;0.75;;;;;16.03;44.25;101614.03;5001077;28;46287;-57
2022/09/17 08:43:27;;;;;;;;;1.00;1.00;;;;;16.12;43.78;101618.25;4998571;28;45452;-62
2022/09/17 08:45:57;;;;;;;;;2.25;2.25;;;;;16.18;43.73;101618.97;5001095;28;45355;-61
2022/09/17 08:48:30;;;;;;;;;0.75;0.75;;;;;16.24;43.90;101616.19;5001076;28;45381;-60
2022/09/17 08:50:55;;;;;;;;;14.75;11.00;;;;;16.28;43.83;101602.88;5000843;28;46176;-61
2022/09/17 08:53:40;;;;;;;;;11.25;10.75;;;;;16.39;43.78;101612.28;5000920;28;45466;-58
2022/09/17 08:56:12;;;;;;;;;3.25;2.75;;;;;16.50;43.85;101622.66;4992382;28;45297;-61
2022/09/17 08:59:11;;;;;;;;;1.00;1.00;;;;;16.58;43.49;101617.13;5000599;28;45248;-59
2022/09/17 09:01:59;;;;;;;;;1.50;1.50;;;;;16.71;43.67;101625.66;5000789;28;46323;-57
2022/09/17 09:04:33;;;;;;;;;1.00;1.00;;;;;16.79;43.71;101626.34;5000974;28;45434;-58
2022/09/17 09:07:01;;;;;;;;;1.75;1.00;;;;;16.91;43.42;101622.50;4997742;28;45420;-61
2022/09/17 09:09:33;;;;;;;;;4.50;1.00;;;;;16.97;43.81;101629.44;4990097;28;45562;-58
2022/09/17 09:12:09;;;;;;;;;1.00;1.00;;;;;17.11;43.48;101626.41;4999895;28;45486;-58
2022/09/17 09:14:57;;;;;;;;;1.00;1.00;;;;;17.18;43.72;101643.91;5000484;28;45342;-59
2022/09/17 09:17:32;;;;;;;;;1.50;1.50;;;;;17.30;43.61;101634.72;4989997;28;45475;-59
2022/09/17 09:19:57;;;;;;;;;1.50;1.50;;;;;17.37;43.19;101636.28;5000734;28;45273;-59
2022/09/17 09:22:29;;;;;;;;;2.75;1.25;;;;;17.46;43.24;101630.72;4999808;28;46176;-59
2022/09/17 09:25:23;;;;;;;;;0.00;0.00;;;;;17.55;43.21;101638.41;4988334;28;45341;-62
2022/09/17 09:27:59;;;;;;;;;2.25;1.00;;;;;17.66;43.15;101634.56;4982684;28;45397;-57
2022/09/17 09:30:33;;;;;;;;;3.75;1.75;;;;;17.75;42.99;101630.75;4990015;28;45372;-55
2022/09/17 09:33:13;;;;;;;;;1.25;1.25;;;;;17.83;42.91;101634.06;4998843;28;45488;-57
2022/09/17 09:35:42;;;;;;;;;2.25;2.00;;;;;17.88;42.70;101632.13;4990722;28;45327;-55
2022/09/17 09:38:13;;;;;;;;;0.00;0.00;;;;;17.97;42.48;101631.03;4996008;28;45403;-57
2022/09/17 09:40:45;;;;;;;;;3.00;3.00;;;;;18.05;42.55;101636.09;5000223;28;45525;-57
2022/09/17 09:43:19;;;;;;;;;6.25;2.25;;;;;18.11;42.47;101636.78;4999122;28;46198;-57
2022/09/17 09:45:44;;;;;;;;;1.25;1.00;;;;;18.16;42.55;101629.53;4997711;28;45373;-57
2022/09/17 09:48:31;;;;;;;;;1.00;1.00;;;;;18.22;42.53;101628.44;5000412;28;45365;-57
2022/09/17 09:51:11;;;;;;;;;5.50;1.00;;;;;18.32;42.30;101634.34;4992251;28;45480;-57
2022/09/17 09:53:44;;;;;;;;;0.25;0.25;;;;;18.42;42.39;101637.59;4999074;28;45501;-57
2022/09/17 09:56:31;;;;;;;;;2.75;1.75;;;;;18.49;42.16;101636.47;5000069;28;45737;-58
2022/09/17 09:58:56;;;;;;;;;3.25;3.00;;;;;18.54;42.06;101634.53;4999810;28;45318;-61
2022/09/17 10:01:22;;;;;;;;;2.00;2.00;;;;;18.59;41.91;101643.22;5000182;28;45207;-59
2022/09/17 10:03:50;;;;;;;;;0.75;0.00;;;;;18.65;41.88;101631.47;4986342;28;45367;-57
2022/09/17 10:06:18;;;;;;;;;1.25;1.25;;;;;18.68;41.80;101631.41;5000199;28;45282;-57
2022/09/17 10:08:55;;;;;;;;;0.25;0.25;;;;;18.72;41.45;101632.16;4982435;28;45296;-59
2022/09/17 10:11:26;;;;;;;;;2.25;0.50;;;;;18.74;41.73;101624.97;4993851;28;45382;-65
2022/09/17 10:14:12;;;;;;;;;0.75;0.75;;;;;18.76;41.66;101626.66;4999057;28;45465;-71
2022/09/17 10:16:37;;;;;;;;;1.00;1.00;;;;;18.80;41.29;101630.97;4999716;28;45402;-65
2022/09/17 10:19:02;;;;;;;;;1.00;1.00;;;;;18.84;41.18;101634.38;5000022;28;45449;-65
2022/09/17 10:21:32;;;;;;;;;1.00;1.00;;;;;18.82;40.84;101629.09;4999906;28;45243;-67
2022/09/17 10:24:00;;;;;;;;;1.00;1.00;;;;;18.83;40.47;101630.84;4999775;28;45407;-63
2022/09/17 10:26:33;;;;;;;;;1.00;1.00;;;;;18.84;40.55;101629.03;4982544;28;45281;-64
2022/09/17 10:29:02;;;;;;;;;1.00;1.00;;;;;18.90;40.48;101627.97;4993746;28;45463;-69
2022/09/17 10:31:49;;;;;;;;;0.00;0.00;;;;;19.00;40.95;101622.31;4992570;28;45372;-65
2022/09/17 10:34:29;;;;;;;;;1.00;1.00;;;;;19.10;40.38;101620.16;5002600;28;46147;-67
2022/09/17 10:36:56;;;;;;;;;0.25;0.00;;;;;19.17;40.96;101626.16;4984599;28;45294;-68
2022/09/17 10:39:36;;;;;;;;;1.00;1.00;;;;;19.24;40.44;101613.47;4986557;28;45411;-67
2022/09/17 10:42:16;;;;;;;;;0.25;0.25;;;;;19.36;40.49;101622.81;5003076;28;45252;-62
2022/09/17 10:44:52;;;;;;;;;1.75;1.00;;;;;19.48;40.64;101623.25;4991456;28;46575;-62
2022/09/17 10:47:23;;;;;;;;;1.25;0.25;;;;;19.61;40.47;101614.78;5003142;28;45268;-63
2022/09/17 10:50:14;;;;;;;;;2.50;0.75;;;;;19.81;40.62;101617.53;5002341;28;45500;-59
2022/09/17 10:52:45;;;;;;;;;1.00;1.00;;;;;20.02;40.74;101622.97;4996980;28;45237;-64
2022/09/17 10:55:32;;;;;;;;;1.00;1.00;;;;;20.17;40.19;101616.13;5002856;28;46344;-67
2022/09/17 10:58:00;;;;;;;;;0.75;0.00;;;;;20.26;40.04;101604.22;5002387;28;45706;-66
2022/09/17 11:00:33;;;;;;;;;1.00;1.00;;;;;20.32;39.99;101600.44;4984178;28;45286;-62
2022/09/17 11:03:07;;;;;;;;;1.00;1.00;;;;;20.58;40.60;101610.03;5002941;28;45184;-65
2022/09/17 11:06:26;;;;;;;;;0.00;0.00;;;;;20.84;39.96;101606.28;5002647;28;46539;-65
2022/09/17 11:09:06;;;;;;;;;1.25;1.25;;;;;21.00;40.25;101595.75;4961688;28;45484;-68
2022/09/17 11:12:00;;;;;;;;;11.75;9.50;;;;;21.20;39.71;101602.88;4992868;28;45328;-68
2022/09/17 11:15:08;;;;;;;;;1.75;1.00;;;;;21.39;39.76;101596.69;5002329;28;45398;-69
2022/09/17 11:18:00;;;;;;;;;3.00;2.00;;;;;21.57;39.44;101584.28;5002601;28;45416;-67
2022/09/17 11:21:14;;;;;;;;;4.75;1.00;;;;;21.71;39.48;101597.88;4981681;28;45797;-67
2022/09/17 11:24:16;;;;;;;;;0.00;0.00;;;;;21.76;38.87;101589.66;4980099;28;45497;-64
2022/09/17 11:26:50;;;;;;;;;0.50;0.50;;;;;21.75;38.47;101591.44;5001960;28;45650;-70
2022/09/17 11:29:21;;;;;;;;;0.00;0.00;;;;;21.86;38.91;101584.69;5002068;28;45236;-69
2022/09/17 11:31:49;;;;;;;;;0.00;0.00;;;;;21.99;38.27;101582.31;4984048;28;45340;-68
2022/09/17 11:34:27;;;;;;;;;0.00;0.00;;;;;22.15;38.01;101583.28;5001659;28;45398;-65
2022/09/17 11:37:12;;;;;;;;;0.00;0.00;;;;;22.28;37.83;101591.56;5001705;28;45255;-66
2022/09/17 11:39:58;;;;;;;;;1.00;0.00;;;;;22.42;37.79;101579.34;4980643;28;46670;-68
2022/09/17 11:42:30;;;;;;;;;0.00;0.00;;;;;22.64;38.22;101577.28;4970661;28;45555;-66